createdAt,value
2022-09-20T00:01:40.461Z,74.62
2022-09-20T00:04:08.962Z,76.11
2022-09-20T00:06:36.185Z,75.37
2022-09-20T00:09:04.318Z,75.66
2022-09-20T00:11:34.264Z,77.18
2022-09-20T00:14:04.098Z,77.33
2022-09-20T00:16:34.604Z,76.12
2022-09-20T00:19:05.896Z,75.90
2022-09-20T00:21:37.783Z,74.81
2022-09-20T00:24:06.560Z,75.74
2022-09-20T00:26:34.172Z,75.24
2022-09-20T00:29:02.012Z,76.88
2022-09-20T00:31:29.471Z,77.73
2022-09-20T00:34:16.543Z,77.21
2022-09-20T00:36:44.652Z,76.55
2022-09-20T00:39:14.203Z,77.68
2022-09-20T00:41:41.358Z,76.15
2022-09-20T00:44:44.036Z,76.21
2022-09-20T00:47:17.834Z,73.17
2022-09-20T00:49:45.496Z,74.51
2022-09-20T00:52:12.848Z,74.61
2022-09-20T00:54:40.088Z,74.00
2022-09-20T00:57:07.267Z,73.08
2022-09-20T00:59:39.564Z,73.68
2022-09-20T01:02:09.464Z,74.67
2022-09-20T01:04:40.705Z,74.70
2022-09-20T01:07:09.716Z,74.19
2022-09-20T01:09:37.179Z,74.39
2022-09-20T01:12:09.769Z,74.14
2022-09-20T01:14:36.754Z,74.20
2022-09-20T01:17:06.454Z,74.79
2022-09-20T01:20:00.826Z,75.48
2022-09-20T01:23:03.166Z,74.87
2022-09-20T01:25:54.747Z,74.88
2022-09-20T01:28:22.174Z,75.17
2022-09-20T01:31:15.940Z,75.02
2022-09-20T01:34:13.985Z,74.63
2022-09-20T01:36:45.506Z,73.70
2022-09-20T01:39:23.824Z,73.46
2022-09-20T01:42:02.511Z,73.36
2022-09-20T01:44:41.208Z,73.99
2022-09-20T01:47:20.468Z,73.44
2022-09-20T01:49:50.412Z,74.21
2022-09-20T01:52:29.541Z,73.51
2022-09-20T01:55:15.508Z,74.83
2022-09-20T01:58:17.015Z,74.51
2022-09-20T02:01:24.359Z,74.80
2022-09-20T02:04:03.199Z,75.19
2022-09-20T02:07:01.145Z,76.32
2022-09-20T02:09:59.298Z,76.68
2022-09-20T02:12:40.759Z,75.71
2022-09-20T02:15:14.300Z,76.74
2022-09-20T02:17:53.928Z,77.17
2022-09-20T02:20:39.060Z,76.09
2022-09-20T02:23:26.009Z,77.63
2022-09-20T02:26:14.616Z,77.83
2022-09-20T02:29:17.105Z,77.33
2022-09-20T02:31:56.063Z,78.10
2022-09-20T02:35:00.636Z,78.80
2022-09-20T02:37:58.350Z,78.60
2022-09-20T02:40:43.900Z,79.47
2022-09-20T02:43:42.014Z,79.55
2022-09-20T02:46:35.316Z,80.44
2022-09-20T02:49:28.574Z,81.18
2022-09-20T02:52:02.593Z,81.30
2022-09-20T02:55:06.130Z,82.20
2022-09-20T02:58:06.681Z,82.21
2022-09-20T03:00:45.011Z,82.99
2022-09-20T03:03:20.163Z,83.07
2022-09-20T03:05:53.291Z,83.14
2022-09-20T03:08:43.311Z,83.43
2022-09-20T03:11:25.574Z,84.08
2022-09-20T03:14:19.250Z,83.93
2022-09-20T03:17:16.565Z,84.04
2022-09-20T03:19:55.155Z,84.46
2022-09-20T03:22:50.244Z,84.86
2022-09-20T03:25:50.372Z,85.13
2022-09-20T03:28:20.322Z,84.93
2022-09-20T03:31:08.862Z,85.39
2022-09-20T03:34:15.444Z,86.27
2022-09-20T03:37:11.514Z,86.55
2022-09-20T03:39:46.515Z,86.87
2022-09-20T03:42:23.137Z,87.24
2022-09-20T03:45:17.657Z,86.93
2022-09-20T03:48:13.321Z,87.06
2022-09-20T03:50:58.942Z,88.43
2022-09-20T03:53:44.562Z,89.24
2022-09-20T03:56:19.233Z,88.87
2022-09-20T03:58:46.281Z,87.91
2022-09-20T04:01:35.732Z,88.49
2022-09-20T04:04:16.430Z,88.05
2022-09-20T04:06:59.584Z,88.62
2022-09-20T04:09:38.647Z,88.71
2022-09-20T04:12:19.515Z,88.87
2022-09-20T04:15:34.082Z,88.22
2022-09-20T04:18:40.709Z,89.15
2022-09-20T04:21:31.375Z,90.92
2022-09-20T04:24:36.987Z,89.49
2022-09-20T04:27:15.747Z,88.82
2022-09-20T04:30:11.943Z,89.13
2022-09-20T04:33:08.034Z,89.60
2022-09-20T04:36:30.457Z,89.43
2022-09-20T04:39:09.002Z,90.04
2022-09-20T04:42:08.739Z,90.31
2022-09-20T04:45:08.982Z,90.08
2022-09-20T04:47:54.775Z,90.19
2022-09-20T04:50:46.113Z,89.81
2022-09-20T04:53:36.818Z,90.48
2022-09-20T04:56:22.289Z,90.12
2022-09-20T04:59:05.201Z,90.30
2022-09-20T05:01:38.156Z,90.82
2022-09-20T05:04:31.365Z,90.88
2022-09-20T05:07:38.791Z,90.85
2022-09-20T05:10:08.799Z,91.12
2022-09-20T05:12:47.825Z,90.49
2022-09-20T05:15:38.434Z,90.45
2022-09-20T05:18:10.321Z,89.63
2022-09-20T05:20:51.261Z,89.05
2022-09-20T05:23:51.997Z,87.43
2022-09-20T05:26:25.071Z,86.72
2022-09-20T05:29:25.707Z,83.67
2022-09-20T05:32:03.081Z,84.11
2022-09-20T05:34:51.505Z,81.75
2022-09-20T05:37:46.826Z,81.31
2022-09-20T05:40:26.052Z,81.04
2022-09-20T05:43:11.782Z,79.49
2022-09-20T05:45:44.550Z,78.37
2022-09-20T05:48:26.748Z,74.69
2022-09-20T05:51:04.067Z,73.66
2022-09-20T05:54:18.788Z,70.59
2022-09-20T05:56:46.353Z,68.74
2022-09-20T05:59:45.536Z,69.02
2022-09-20T06:02:38.465Z,67.78
2022-09-20T06:05:29.022Z,66.90
2022-09-20T06:08:04.928Z,67.16
2022-09-20T06:11:05.872Z,67.41
2022-09-20T06:14:03.842Z,67.08
2022-09-20T06:17:03.443Z,67.11
2022-09-20T06:20:05.367Z,65.65
2022-09-20T06:22:41.781Z,65.26
2022-09-20T06:25:08.760Z,65.67
2022-09-20T06:27:49.550Z,63.80
2022-09-20T06:30:21.348Z,62.97
2022-09-20T06:33:14.132Z,62.52
2022-09-20T06:35:44.202Z,58.82
2022-09-20T06:38:38.857Z,59.85
2022-09-20T06:41:24.987Z,59.32
2022-09-20T06:43:51.985Z,59.02
2022-09-20T06:46:19.687Z,58.18
2022-09-20T06:48:47.454Z,58.12
2022-09-20T06:51:14.791Z,57.06
2022-09-20T06:53:42.472Z,56.09
2022-09-20T06:56:15.137Z,56.02
2022-09-20T06:58:42.405Z,53.36
2022-09-20T07:01:09.621Z,50.76
2022-09-20T07:03:37.366Z,51.09
2022-09-20T07:06:04.734Z,50.23
2022-09-20T07:08:31.891Z,49.75
2022-09-20T07:11:06.789Z,49.41
2022-09-20T07:13:34.603Z,48.64
2022-09-20T07:16:04.002Z,47.41
2022-09-20T07:18:32.316Z,46.56
2022-09-20T07:21:01.503Z,46.19
2022-09-20T07:23:30.473Z,45.89
2022-09-20T07:26:01.295Z,46.70
2022-09-20T07:28:30.435Z,46.49
2022-09-20T07:30:57.642Z,45.82
2022-09-20T07:33:25.410Z,45.79
2022-09-20T07:35:54.652Z,46.07
2022-09-20T07:38:23.204Z,46.07
2022-09-20T07:40:57.876Z,47.12
2022-09-20T07:43:25.853Z,46.82
2022-09-20T07:45:58.175Z,46.67
2022-09-20T07:48:27.349Z,45.90
2022-09-20T07:51:05.659Z,47.69
2022-09-20T07:53:35.433Z,48.61
2022-09-20T07:56:14.467Z,47.12
2022-09-20T07:58:42.497Z,47.82
2022-09-20T08:01:12.785Z,47.42
2022-09-20T08:03:40.667Z,48.02
2022-09-20T08:06:08.847Z,48.77
2022-09-20T08:08:37.768Z,47.96
2022-09-20T08:11:06.698Z,48.41
2022-09-20T08:16:40.388Z,48.45
2022-09-20T08:19:07.746Z,47.75
2022-09-20T08:21:38.203Z,46.92
2022-09-20T08:24:05.176Z,47.08
2022-09-20T08:26:32.697Z,46.42
2022-09-20T08:29:01.521Z,46.04
2022-09-20T08:31:34.612Z,45.95
2022-09-20T08:34:05.505Z,46.28
2022-09-20T08:36:36.736Z,46.72
2022-09-20T08:42:03.212Z,45.57
2022-09-20T08:45:00.536Z,45.01
2022-09-20T08:47:33.470Z,44.64
2022-09-20T08:50:09.220Z,45.03
2022-09-20T08:52:40.151Z,44.87
2022-09-20T08:55:22.288Z,45.24
2022-09-20T08:57:57.921Z,45.18
2022-09-20T09:00:32.421Z,45.91
2022-09-20T09:03:04.625Z,45.85
2022-09-20T09:05:37.815Z,45.99
2022-09-20T09:08:37.549Z,46.70
2022-09-20T09:11:10.249Z,46.66
2022-09-20T09:13:40.140Z,47.73
2022-09-20T09:16:13.431Z,47.00
2022-09-20T09:18:42.526Z,47.94
2022-09-20T09:21:20.566Z,48.49
2022-09-20T09:24:14.059Z,48.94
2022-09-20T09:26:43.649Z,49.94
2022-09-20T09:29:20.274Z,50.61
2022-09-20T09:31:56.865Z,49.88
2022-09-20T09:34:35.879Z,50.33
2022-09-20T09:37:03.222Z,50.38
2022-09-20T09:39:38.696Z,49.25
2022-09-20T09:42:36.299Z,46.63
2022-09-20T09:45:14.348Z,46.42
2022-09-20T09:47:41.492Z,45.81
2022-09-20T09:50:23.617Z,46.84
2022-09-20T09:53:03.041Z,49.82
2022-09-20T09:55:59.470Z,48.30
2022-09-20T09:58:46.379Z,48.56
2022-09-20T10:01:32.562Z,48.33
2022-09-20T10:04:00.167Z,48.25
2022-09-20T10:06:59.184Z,46.37
2022-09-20T10:09:50.239Z,45.19
2022-09-20T10:12:32.844Z,45.52
2022-09-20T10:15:17.572Z,45.86
2022-09-20T10:17:53.961Z,46.35
2022-09-20T10:20:35.734Z,45.87
2022-09-20T10:23:58.560Z,45.90
2022-09-20T10:26:24.963Z,46.17
2022-09-20T10:29:09.115Z,45.71
2022-09-20T10:32:15.565Z,45.25
2022-09-20T10:34:43.050Z,44.15
2022-09-20T10:37:46.028Z,44.82
2022-09-20T10:40:15.663Z,44.88
2022-09-20T10:43:08.005Z,44.25
2022-09-20T10:46:27.996Z,45.92
2022-09-20T10:49:17.004Z,45.84
2022-09-20T10:52:05.816Z,45.78
2022-09-20T10:55:26.430Z,46.00
2022-09-20T10:58:11.085Z,46.54
2022-09-20T11:00:38.036Z,46.46
2022-09-20T11:03:26.847Z,46.16
2022-09-20T11:06:12.675Z,46.45
2022-09-20T11:08:42.928Z,46.20
2022-09-20T11:11:17.311Z,45.92
2022-09-20T11:14:02.646Z,46.63
2022-09-20T11:16:48.322Z,46.47
2022-09-20T11:19:35.198Z,47.57
2022-09-20T11:22:40.618Z,47.21
2022-09-20T11:25:23.992Z,43.89
2022-09-20T11:28:14.661Z,43.95
2022-09-20T11:36:44.312Z,43.20
2022-09-20T11:39:25.292Z,42.37
2022-09-20T11:41:56.402Z,42.31
2022-09-20T11:44:48.769Z,42.26
2022-09-20T11:48:00.196Z,42.76
2022-09-20T11:51:00.309Z,42.79
2022-09-20T11:54:02.108Z,42.36
2022-09-20T11:56:37.282Z,42.92
2022-09-20T11:59:34.590Z,44.34
2022-09-20T12:02:05.910Z,43.70
2022-09-20T12:04:41.409Z,44.84
2022-09-20T12:07:26.867Z,43.52
2022-09-20T12:10:10.607Z,41.80
2022-09-20T12:12:52.313Z,42.16
2022-09-20T12:15:24.959Z,42.76
2022-09-20T12:17:55.978Z,44.17
2022-09-20T12:20:38.818Z,43.43
2022-09-20T12:23:43.503Z,44.05
2022-09-20T12:26:16.676Z,42.77
2022-09-20T12:28:53.677Z,43.54
2022-09-20T12:31:29.385Z,43.24
2022-09-20T12:34:12.032Z,44.10
2022-09-20T12:36:50.822Z,44.47
2022-09-20T12:39:30.363Z,45.26
2022-09-20T12:41:59.158Z,45.50
2022-09-20T12:45:00.291Z,45.81
2022-09-20T12:47:40.688Z,45.91
2022-09-20T12:50:35.623Z,44.86
2022-09-20T12:53:07.890Z,44.96
2022-09-20T12:55:49.680Z,44.86
2022-09-20T12:58:23.282Z,45.80
2022-09-20T13:00:59.463Z,43.90
2022-09-20T13:03:37.234Z,43.72
2022-09-20T13:06:29.077Z,44.97
2022-09-20T13:09:10.138Z,44.46
2022-09-20T13:11:55.316Z,43.89
2022-09-20T13:14:33.745Z,44.67
2022-09-20T13:17:20.684Z,44.70
2022-09-20T13:19:51.041Z,44.60
2022-09-20T13:22:42.734Z,44.03
2022-09-20T13:25:23.015Z,44.64
2022-09-20T13:28:21.237Z,44.52
2022-09-20T13:30:52.015Z,45.76
2022-09-20T13:33:25.398Z,45.78
2022-09-20T13:35:59.605Z,46.43
2022-09-20T13:38:32.932Z,44.37
2022-09-20T13:41:10.039Z,44.22
2022-09-20T13:43:50.214Z,44.04
2022-09-20T13:46:24.735Z,45.23
2022-09-20T13:49:21.464Z,44.34
2022-09-20T13:51:50.053Z,43.83
2022-09-20T13:54:31.451Z,44.55
2022-09-20T13:57:05.729Z,45.21
2022-09-20T13:59:46.023Z,45.81
2022-09-20T14:02:36.034Z,45.17
2022-09-20T14:05:06.618Z,44.74
2022-09-20T14:08:07.427Z,45.44
2022-09-20T14:10:45.198Z,45.44
2022-09-20T14:13:21.912Z,45.16
2022-09-20T14:19:30.846Z,44.83
2022-09-20T14:22:18.369Z,45.87
2022-09-20T14:25:30.005Z,45.65
2022-09-20T14:28:30.501Z,46.29
2022-09-20T14:31:08.693Z,47.81
2022-09-20T14:38:02.334Z,45.65
2022-09-20T14:41:40.676Z,45.70
2022-09-20T14:45:47.378Z,46.77
2022-09-20T15:07:19.552Z,48.91
2022-09-20T15:08:08.077Z,48.82
2022-09-20T15:10:40.236Z,49.45
2022-09-20T15:16:15.772Z,49.24
2022-09-20T15:18:44.889Z,48.92
2022-09-20T15:24:59.059Z,48.46
2022-09-20T15:27:33.237Z,49.14
2022-09-20T15:30:27.605Z,49.14
2022-09-20T15:33:08.777Z,50.33
2022-09-20T15:35:57.186Z,52.28
2022-09-20T15:38:37.014Z,52.25
2022-09-20T15:41:15.509Z,52.05
2022-09-20T15:43:50.703Z,54.41
2022-09-20T15:46:56.143Z,53.82
2022-09-20T15:49:30.972Z,52.67
2022-09-20T15:52:11.950Z,52.99
2022-09-20T15:54:53.115Z,53.30
2022-09-20T15:57:35.010Z,52.71
2022-09-20T16:00:24.991Z,52.10
2022-09-20T16:02:52.758Z,53.48
2022-09-20T16:05:51.356Z,53.29
2022-09-20T16:12:02.786Z,54.50
2022-09-20T16:14:33.749Z,56.59
2022-09-20T16:17:02.446Z,57.77
2022-09-20T16:19:35.445Z,59.24
2022-09-20T16:22:09.297Z,60.06
2022-09-20T16:24:40.983Z,60.93
2022-09-20T16:27:10.458Z,61.99
2022-09-20T16:29:41.069Z,62.40
2022-09-20T16:32:11.814Z,62.58
2022-09-20T16:34:42.919Z,63.01
2022-09-20T16:37:31.612Z,64.00
2022-09-20T16:40:03.008Z,63.79
2022-09-20T16:43:11.757Z,64.85
2022-09-20T16:48:43.046Z,65.57
2022-09-20T16:51:38.723Z,66.76
2022-09-20T16:54:14.942Z,65.97
2022-09-20T16:59:38.678Z,67.39
2022-09-20T17:02:06.869Z,67.94
2022-09-20T17:04:35.462Z,68.91
2022-09-20T17:07:06.922Z,69.91
2022-09-20T17:09:41.745Z,70.00
2022-09-20T17:12:10.669Z,69.83
2022-09-20T17:14:45.045Z,71.44
2022-09-20T17:20:14.066Z,72.18
2022-09-20T17:23:25.447Z,71.48
2022-09-20T17:26:09.332Z,72.82
2022-09-20T17:28:44.546Z,72.97
2022-09-20T17:31:18.194Z,73.07
2022-09-20T17:33:49.674Z,71.43
2022-09-20T17:37:15.220Z,73.52
2022-09-20T17:39:40.077Z,74.56
2022-09-20T17:42:08.558Z,75.74
2022-09-20T17:44:38.365Z,76.12
2022-09-20T17:47:06.910Z,76.68
2022-09-20T17:49:46.855Z,77.26
2022-09-20T17:52:15.168Z,76.41
2022-09-20T17:54:43.546Z,76.82
2022-09-20T17:57:14.361Z,76.90
2022-09-20T17:59:45.854Z,77.51
2022-09-20T18:02:29.099Z,77.67
2022-09-20T18:04:57.259Z,77.13
2022-09-20T18:07:25.280Z,77.80
2022-09-20T18:13:24.842Z,77.93
2022-09-20T18:16:20.912Z,77.96
2022-09-20T18:18:50.654Z,78.16
2022-09-20T18:21:20.830Z,78.73
2022-09-20T18:24:05.472Z,78.12
2022-09-20T18:26:34.361Z,78.46
2022-09-20T18:29:20.516Z,79.12
2022-09-20T18:32:07.989Z,79.28
2022-09-20T18:37:28.415Z,78.24
2022-09-20T18:38:55.666Z,79.36
2022-09-20T18:39:56.316Z,79.33
2022-09-20T18:42:27.390Z,80.22
2022-09-20T18:45:21.652Z,80.58
2022-09-20T18:51:14.062Z,81.39
2022-09-20T18:53:45.311Z,80.66
2022-09-20T18:56:35.039Z,80.79
2022-09-20T18:59:09.004Z,81.39
2022-09-20T19:01:43.074Z,80.95
2022-09-20T19:04:56.479Z,81.50
2022-09-20T19:07:56.220Z,81.31
2022-09-20T19:11:03.907Z,81.23
2022-09-20T19:14:22.712Z,81.65
2022-09-20T19:17:34.107Z,82.72
2022-09-20T19:20:26.287Z,83.19
2022-09-20T19:23:07.304Z,83.37
2022-09-20T19:25:49.734Z,83.82
2022-09-20T19:28:24.546Z,83.07
2022-09-20T19:30:53.384Z,83.56
2022-09-20T19:33:24.005Z,83.31
2022-09-20T19:36:09.392Z,83.05
2022-09-20T19:39:07.297Z,83.03
2022-09-20T19:41:51.749Z,83.09
2022-09-20T19:44:38.920Z,83.15
2022-09-20T19:48:01.875Z,83.76
2022-09-20T19:50:55.376Z,84.33
2022-09-20T19:53:28.519Z,84.76
2022-09-20T19:56:13.690Z,84.64
2022-09-20T19:58:46.105Z,84.69
2022-09-20T20:01:14.385Z,84.29
2022-09-20T20:03:52.127Z,84.96
2022-09-20T20:06:28.269Z,84.42
2022-09-20T20:09:14.414Z,85.00
2022-09-20T20:12:00.832Z,85.77
2022-09-20T20:14:28.140Z,85.17
2022-09-20T20:17:17.344Z,84.99
2022-09-20T20:20:19.022Z,85.00
2022-09-20T20:23:02.855Z,84.89
2022-09-20T20:26:29.524Z,85.07
2022-09-20T20:29:10.648Z,85.51
2022-09-20T20:31:38.748Z,85.48
2022-09-20T20:34:07.102Z,84.85
2022-09-20T20:36:52.339Z,85.11
2022-09-20T20:39:23.834Z,85.48
2022-09-20T20:41:53.282Z,85.34
2022-09-20T20:44:22.896Z,85.68
2022-09-20T20:47:18.404Z,85.95
2022-09-20T20:49:52.553Z,86.33
2022-09-20T20:52:52.248Z,86.76
2022-09-20T20:56:02.529Z,86.75
2022-09-20T20:58:34.434Z,86.11
2022-09-20T21:01:21.150Z,85.99
2022-09-20T21:03:54.326Z,85.97
2022-09-20T21:06:26.074Z,85.09
2022-09-20T21:08:54.516Z,86.08
2022-09-20T21:11:40.089Z,85.81
2022-09-20T21:14:13.668Z,85.88
2022-09-20T21:16:44.480Z,85.16
2022-09-20T21:19:16.515Z,86.57
2022-09-20T21:21:49.063Z,86.22
2022-09-20T21:24:18.428Z,86.24
2022-09-20T21:26:49.709Z,86.15
2022-09-20T21:29:37.976Z,85.89
2022-09-20T21:32:09.263Z,86.41
2022-09-20T21:34:37.925Z,87.16
2022-09-20T21:37:26.417Z,86.79
2022-09-20T21:39:55.351Z,87.66
2022-09-20T21:42:23.496Z,88.08
2022-09-20T21:44:52.665Z,86.34
2022-09-20T21:47:35.508Z,87.95
2022-09-20T21:50:03.238Z,88.13
2022-09-20T21:52:30.973Z,88.67
2022-09-20T21:54:58.529Z,88.81
2022-09-20T21:57:25.979Z,89.31
2022-09-20T21:59:53.603Z,89.45
2022-09-20T22:02:23.810Z,89.28
2022-09-20T22:04:51.602Z,88.69
2022-09-20T22:07:19.486Z,88.52
2022-09-20T22:09:47.413Z,87.07
2022-09-20T22:12:15.024Z,88.03
2022-09-20T22:14:42.655Z,86.70
2022-09-20T22:17:10.157Z,87.70
2022-09-20T22:19:41.319Z,88.84
2022-09-20T22:22:09.452Z,88.68
2022-09-20T22:24:36.836Z,89.04
2022-09-20T22:27:04.424Z,88.02
2022-09-20T22:29:31.917Z,88.79
2022-09-20T22:31:59.153Z,88.46
2022-09-20T22:34:26.470Z,87.99
2022-09-20T22:36:54.377Z,88.25
2022-09-20T22:39:21.646Z,87.87
2022-09-20T22:41:51.493Z,87.09
2022-09-20T22:44:18.694Z,86.80
2022-09-20T22:46:46.033Z,87.20
2022-09-20T22:49:13.359Z,87.01
2022-09-20T22:51:41.093Z,87.70
2022-09-20T22:54:11.215Z,88.35
2022-09-20T22:56:39.735Z,86.67
2022-09-20T22:59:09.674Z,88.46
2022-09-20T23:01:43.131Z,88.29
2022-09-20T23:04:19.502Z,88.90
2022-09-20T23:06:49.611Z,89.16
2022-09-20T23:09:18.856Z,88.90
2022-09-20T23:11:47.147Z,88.81
2022-09-20T23:14:20.269Z,88.46
2022-09-20T23:16:48.729Z,89.69
2022-09-20T23:19:16.511Z,89.11
2022-09-20T23:21:44.628Z,90.85
2022-09-20T23:24:14.829Z,89.96
2022-09-20T23:26:43.976Z,89.29
2022-09-20T23:29:16.239Z,89.14
2022-09-20T23:31:46.874Z,89.34
2022-09-20T23:34:16.123Z,89.52
2022-09-20T23:36:44.459Z,89.02
2022-09-20T23:39:12.348Z,88.40
2022-09-20T23:41:41.854Z,89.10
2022-09-20T23:44:11.882Z,88.82
2022-09-20T23:46:39.712Z,89.60
2022-09-20T23:49:09.528Z,89.16
2022-09-20T23:51:37.591Z,89.13
2022-09-20T23:54:05.243Z,87.91
2022-09-20T23:56:32.587Z,88.45
2022-09-20T23:58:59.971Z,87.95
